Weather at Franklin Field

Public forecast

Using degrees Fahrenheit for public forecast. Weather courtesy of forecast.io.

Closest aviation weather report (METAR) to Franklin Field

Closest report is Sacramento Executive Airport, 12.8 nm (23.7 km) NNW. Retrieved 2021/01/26 00:53 UTC (32 minutes ago):

KSAC 260053Z 33006KT 10SM CLR 11/M05 A2977 RMK AO2 SLP081 T01061050

Closest aviation forecast (TAF) to Franklin Field

Closest forecast is Sacramento Executive Airport, 12.8 nm (23.7 km) NNW. Retrieved 2021-01-26 00:30 UTC (55 minutes ago):

TAF KSAC 252329Z 2600/2624 32010KT P6SM SKC FM260800 VRB05KT P6SM SKC FM262200 15009G15KT P6SM OVC100